createdAt,value
2022-12-25T00:01:54.831Z,12.07
2022-12-25T00:04:22.074Z,13.00
2022-12-25T00:06:49.660Z,12.43
2022-12-25T00:09:17.059Z,15.02
2022-12-25T00:11:44.752Z,11.60
2022-12-25T00:14:12.104Z,11.65
2022-12-25T00:16:39.695Z,13.23
2022-12-25T00:19:07.608Z,11.57
2022-12-25T00:21:35.178Z,13.07
2022-12-25T00:24:03.486Z,13.10
2022-12-25T00:26:31.766Z,14.20
2022-12-25T00:28:59.162Z,13.25
2022-12-25T00:31:27.137Z,11.32
2022-12-25T00:33:54.767Z,11.90
2022-12-25T00:36:23.067Z,11.52
2022-12-25T00:38:50.678Z,12.68
2022-12-25T00:41:39.791Z,13.95
2022-12-25T00:44:08.193Z,13.38
2022-12-25T00:46:36.689Z,14.85
2022-12-25T00:49:04.496Z,11.93
2022-12-25T00:51:32.915Z,12.45
2022-12-25T00:54:00.291Z,12.50
2022-12-25T00:56:28.093Z,12.48
2022-12-25T00:58:55.808Z,12.40
2022-12-25T01:01:23.545Z,10.90
2022-12-25T01:03:50.943Z,15.00
2022-12-25T01:06:18.552Z,12.65
2022-12-25T01:09:04.313Z,11.35
2022-12-25T01:11:32.298Z,11.88
2022-12-25T01:13:59.622Z,13.63
2022-12-25T01:16:27.664Z,11.15
2022-12-25T01:18:55.320Z,11.80
2022-12-25T01:21:22.986Z,13.18
2022-12-25T01:23:52.450Z,13.93
2022-12-25T01:26:23.040Z,12.68
2022-12-25T01:28:52.375Z,12.60
2022-12-25T01:31:22.688Z,11.07
2022-12-25T01:33:50.027Z,12.05
2022-12-25T01:36:26.911Z,11.40
2022-12-25T01:38:54.449Z,13.48
2022-12-25T01:41:24.474Z,11.40
2022-12-25T01:44:04.009Z,10.98
2022-12-25T01:46:32.285Z,13.18
2022-12-25T01:49:05.094Z,12.35
2022-12-25T01:51:45.730Z,12.77
2022-12-25T01:54:17.324Z,13.30
2022-12-25T01:56:48.125Z,13.45
2022-12-25T01:59:19.463Z,12.18
2022-12-25T02:01:47.587Z,12.13
2022-12-25T02:04:25.008Z,11.73
2022-12-25T02:06:53.731Z,11.35
2022-12-25T02:09:21.898Z,13.25
2022-12-25T02:11:58.869Z,12.02
2022-12-25T02:14:31.263Z,13.25
2022-12-25T02:17:13.572Z,13.18
2022-12-25T02:20:11.963Z,10.50
2022-12-25T02:23:04.003Z,10.93
2022-12-25T02:25:48.093Z,12.43
2022-12-25T02:28:34.199Z,12.45
2022-12-25T02:31:10.774Z,11.23
2022-12-25T02:34:33.787Z,12.07
2022-12-25T02:37:22.240Z,11.75
2022-12-25T02:40:17.903Z,11.65
2022-12-25T02:43:13.651Z,12.13
2022-12-25T02:49:02.107Z,14.25
2022-12-25T02:51:53.229Z,10.73
2022-12-25T02:54:44.993Z,14.10
2022-12-25T02:57:35.763Z,14.48
2022-12-25T03:00:25.739Z,13.13
2022-12-25T03:03:14.179Z,12.68
2022-12-25T03:06:02.332Z,12.38
2022-12-25T03:08:43.078Z,12.23
2022-12-25T03:11:31.188Z,14.48
2022-12-25T03:14:20.696Z,11.40
2022-12-25T03:16:50.814Z,13.02
2022-12-25T03:19:40.060Z,13.05
2022-12-25T03:22:28.329Z,12.50
2022-12-25T03:25:14.851Z,12.40
2022-12-25T03:27:44.364Z,12.18
2022-12-25T03:30:31.048Z,12.00
2022-12-25T03:33:37.116Z,12.60
2022-12-25T03:36:28.626Z,12.45
2022-12-25T03:39:23.367Z,13.95
2022-12-25T03:42:16.520Z,12.73
2022-12-25T03:45:27.231Z,12.77
2022-12-25T03:48:15.762Z,12.30
2022-12-25T03:51:19.962Z,14.43
2022-12-25T03:54:12.477Z,10.90
2022-12-25T03:56:59.738Z,12.15
2022-12-25T03:59:45.899Z,10.95
2022-12-25T04:02:32.138Z,12.27
2022-12-25T04:05:18.444Z,12.65
2022-12-25T04:08:04.271Z,14.35
2022-12-25T04:10:50.558Z,10.25
2022-12-25T04:13:36.599Z,11.48
2022-12-25T04:16:23.184Z,13.50
2022-12-25T04:19:09.608Z,12.13
2022-12-25T04:21:55.371Z,12.63
2022-12-25T04:27:27.141Z,12.00
2022-12-25T04:30:12.812Z,13.45
2022-12-25T04:32:58.982Z,14.25
2022-12-25T04:35:44.988Z,11.88
2022-12-25T04:38:12.500Z,12.68
2022-12-25T04:40:39.811Z,11.18
2022-12-25T04:43:07.318Z,11.38
2022-12-25T04:45:35.199Z,13.50
2022-12-25T04:48:02.764Z,10.43
2022-12-25T04:50:30.047Z,12.07
2022-12-25T04:52:57.573Z,12.25
2022-12-25T04:55:24.815Z,13.27
2022-12-25T04:57:52.435Z,11.65
2022-12-25T05:00:19.917Z,14.05
2022-12-25T05:02:47.584Z,12.15
2022-12-25T05:05:15.762Z,13.25
2022-12-25T05:07:43.342Z,11.77
2022-12-25T05:10:11.067Z,11.90
2022-12-25T05:12:38.604Z,11.25
2022-12-25T05:15:06.301Z,12.27
2022-12-25T05:17:33.994Z,11.82
2022-12-25T05:20:01.873Z,11.15
2022-12-25T05:22:30.110Z,11.35
2022-12-25T05:24:57.381Z,13.50
2022-12-25T05:27:25.012Z,13.60
2022-12-25T05:29:52.251Z,11.98
2022-12-25T05:32:20.435Z,12.10
2022-12-25T05:34:47.705Z,15.13
2022-12-25T05:37:15.461Z,12.00
2022-12-25T05:39:42.888Z,11.32
2022-12-25T05:42:10.465Z,13.27
2022-12-25T05:44:37.685Z,11.75
2022-12-25T05:47:06.039Z,13.27
2022-12-25T05:49:33.359Z,10.95
2022-12-25T05:52:00.876Z,11.88
2022-12-25T05:54:28.122Z,12.98
2022-12-25T05:56:55.719Z,10.48
2022-12-25T05:59:22.975Z,11.20
2022-12-25T06:01:50.640Z,15.68
2022-12-25T06:04:17.992Z,10.48
2022-12-25T06:06:45.737Z,11.35
2022-12-25T06:09:13.442Z,14.00
2022-12-25T06:11:41.343Z,10.68
2022-12-25T06:14:15.234Z,14.30
2022-12-25T06:16:43.166Z,13.85
2022-12-25T06:19:10.434Z,10.80
2022-12-25T06:21:38.075Z,11.25
2022-12-25T06:24:05.556Z,12.73
2022-12-25T06:26:33.183Z,14.98
2022-12-25T06:29:00.459Z,10.00
2022-12-25T06:31:28.339Z,12.95
2022-12-25T06:33:55.679Z,11.25
2022-12-25T06:36:25.807Z,12.75
2022-12-25T06:38:54.060Z,17.75
2022-12-25T06:41:23.800Z,13.10
2022-12-25T06:43:53.068Z,12.50
2022-12-25T06:46:22.394Z,12.25
2022-12-25T06:48:50.174Z,13.73
2022-12-25T06:51:29.537Z,14.77
2022-12-25T06:53:57.678Z,14.18
2022-12-25T06:56:28.667Z,13.27
2022-12-25T06:59:05.487Z,13.52
2022-12-25T07:01:48.587Z,13.02
2022-12-25T07:04:25.223Z,12.35
2022-12-25T07:06:52.786Z,12.68
2022-12-25T07:09:20.057Z,12.77
2022-12-25T07:11:47.720Z,12.82
2022-12-25T07:14:23.858Z,12.00
2022-12-25T07:16:52.286Z,13.07
2022-12-25T07:19:19.776Z,11.88
2022-12-25T07:21:47.449Z,12.05
2022-12-25T07:24:21.980Z,11.30
2022-12-25T07:26:50.921Z,12.38
2022-12-25T07:29:19.582Z,11.25
2022-12-25T07:31:48.140Z,12.27
2022-12-25T07:34:17.425Z,10.85
2022-12-25T07:36:45.040Z,12.02
2022-12-25T07:39:12.687Z,13.07
2022-12-25T07:41:40.354Z,11.68
2022-12-25T07:44:07.606Z,12.35
2022-12-25T07:46:35.219Z,15.80
2022-12-25T07:49:02.520Z,20.10
2022-12-25T07:51:30.196Z,28.73
2022-12-25T07:53:57.643Z,32.90
2022-12-25T07:56:25.556Z,35.13
2022-12-25T07:58:52.936Z,33.95
2022-12-25T08:01:24.219Z,33.30
2022-12-25T08:03:53.657Z,33.22
2022-12-25T08:06:22.685Z,38.55
2022-12-25T08:08:49.966Z,34.25
2022-12-25T08:11:17.547Z,32.35
2022-12-25T08:13:44.815Z,37.88
2022-12-25T08:16:12.474Z,35.67
2022-12-25T08:18:40.325Z,32.38
2022-12-25T08:21:11.226Z,28.27
2022-12-25T08:23:40.855Z,32.95
2022-12-25T08:26:11.433Z,34.63
2022-12-25T08:28:39.115Z,32.67
2022-12-25T08:31:13.135Z,31.60
2022-12-25T08:33:40.551Z,29.52
2022-12-25T08:36:10.104Z,27.80
2022-12-25T08:38:37.881Z,33.47
2022-12-25T08:41:05.947Z,27.13
2022-12-25T08:43:33.206Z,29.17
2022-12-25T08:46:01.332Z,32.17
2022-12-25T08:48:29.338Z,31.20
2022-12-25T08:50:57.093Z,29.13
2022-12-25T08:53:24.532Z,25.83
2022-12-25T08:56:04.351Z,25.80
2022-12-25T08:58:31.731Z,24.15
2022-12-25T09:00:59.989Z,22.63
2022-12-25T09:03:27.424Z,24.67
2022-12-25T09:05:55.315Z,26.23
2022-12-25T09:08:22.630Z,27.65
2022-12-25T09:10:50.239Z,26.73
2022-12-25T09:13:17.730Z,25.63
2022-12-25T09:15:45.367Z,19.85
2022-12-25T09:18:12.665Z,24.27
2022-12-25T09:20:40.280Z,23.08
2022-12-25T09:23:13.532Z,27.20
2022-12-25T09:25:41.933Z,21.80
2022-12-25T09:28:09.184Z,25.77
2022-12-25T09:30:36.962Z,25.70
2022-12-25T09:33:04.252Z,23.10
2022-12-25T09:35:31.938Z,20.80
2022-12-25T09:38:00.140Z,22.42
2022-12-25T09:40:30.973Z,22.60
2022-12-25T09:42:59.445Z,27.10
2022-12-25T09:45:35.913Z,24.33
2022-12-25T09:48:03.942Z,23.13
2022-12-25T09:50:46.578Z,22.42
2022-12-25T09:53:26.758Z,23.88
2022-12-25T09:56:16.820Z,19.42
2022-12-25T09:58:44.928Z,25.15
2022-12-25T10:01:12.543Z,21.83
2022-12-25T10:04:04.621Z,23.63
2022-12-25T10:07:03.172Z,23.90
2022-12-25T10:09:49.428Z,21.25
2022-12-25T10:12:47.167Z,21.67
2022-12-25T10:15:21.621Z,21.98
2022-12-25T10:18:11.303Z,28.23
2022-12-25T10:20:54.027Z,20.27
2022-12-25T10:23:37.060Z,21.83
2022-12-25T10:26:22.265Z,21.35
2022-12-25T10:29:01.705Z,22.40
2022-12-25T10:31:34.315Z,17.67
2022-12-25T10:34:03.225Z,20.85
2022-12-25T10:36:31.156Z,20.13
2022-12-25T10:38:58.793Z,20.55
2022-12-25T10:42:10.387Z,16.63
2022-12-25T10:44:38.023Z,18.70
2022-12-25T10:47:05.936Z,17.73
2022-12-25T10:49:42.511Z,19.65
2022-12-25T10:52:21.615Z,19.77
2022-12-25T10:54:49.416Z,21.30
2022-12-25T10:57:20.082Z,20.30
2022-12-25T10:59:50.387Z,17.20
2022-12-25T11:02:20.360Z,18.92
2022-12-25T11:04:48.785Z,23.40
2022-12-25T11:07:19.006Z,20.73
2022-12-25T11:10:20.933Z,21.45
2022-12-25T11:12:48.463Z,19.40
2022-12-25T11:15:40.287Z,21.13
2022-12-25T11:18:25.907Z,23.20
2022-12-25T11:20:58.835Z,31.95
2022-12-25T11:23:28.906Z,21.55
2022-12-25T11:26:08.026Z,27.25
2022-12-25T11:28:38.655Z,23.70
2022-12-25T11:31:12.966Z,22.00
2022-12-25T11:33:52.726Z,24.05
2022-12-25T11:36:24.620Z,17.60
2022-12-25T11:38:52.367Z,22.52
2022-12-25T11:41:23.206Z,18.00
2022-12-25T11:43:56.281Z,24.05
2022-12-25T11:46:46.122Z,22.48
2022-12-25T11:49:19.976Z,23.80
2022-12-25T11:51:52.003Z,21.52
2022-12-25T11:54:26.791Z,17.80
2022-12-25T11:59:40.197Z,21.48
2022-12-25T12:02:25.967Z,20.88
2022-12-25T12:05:19.040Z,19.10
2022-12-25T12:07:55.507Z,22.02
2022-12-25T12:10:36.131Z,20.33
2022-12-25T12:13:18.931Z,17.48
2022-12-25T12:15:48.618Z,19.48
2022-12-25T12:18:28.596Z,19.83
2022-12-25T12:21:06.764Z,19.38
2022-12-25T12:23:48.713Z,21.30
2022-12-25T12:26:25.527Z,18.45
2022-12-25T12:28:58.249Z,17.70
2022-12-25T12:31:47.091Z,20.58
2022-12-25T12:34:50.088Z,13.73
2022-12-25T12:37:27.800Z,14.15
2022-12-25T12:39:56.055Z,18.75
2022-12-25T12:42:28.988Z,16.42
2022-12-25T12:45:06.243Z,17.40
2022-12-25T12:47:48.886Z,15.13
2022-12-25T12:50:41.011Z,16.85
2022-12-25T12:53:23.454Z,17.55
2022-12-25T12:55:52.483Z,15.32
2022-12-25T12:58:37.556Z,12.73
2022-12-25T13:01:26.466Z,14.55
2022-12-25T13:04:18.441Z,15.45
2022-12-25T13:07:10.234Z,14.32
2022-12-25T13:10:18.025Z,12.35
2022-12-25T13:12:46.956Z,12.90
2022-12-25T13:15:14.856Z,13.57
2022-12-25T13:17:46.760Z,16.55
2022-12-25T13:20:31.283Z,11.30
2022-12-25T13:22:58.800Z,17.17
2022-12-25T13:25:27.347Z,16.27
2022-12-25T13:27:57.495Z,19.45
2022-12-25T13:30:25.711Z,16.40
2022-12-25T13:32:53.517Z,13.75
2022-12-25T13:35:23.312Z,14.00
2022-12-25T13:37:51.204Z,13.63
2022-12-25T13:40:26.137Z,13.32
2022-12-25T13:43:00.540Z,14.07
2022-12-25T13:45:30.543Z,11.77
2022-12-25T13:48:09.392Z,15.18
2022-12-25T13:50:37.484Z,15.27
2022-12-25T13:53:16.309Z,13.68
2022-12-25T13:55:48.991Z,12.52
2022-12-25T13:58:45.207Z,16.15
2022-12-25T14:01:16.401Z,15.05
2022-12-25T14:03:46.580Z,12.27
2022-12-25T14:06:25.293Z,10.45
2022-12-25T14:08:55.592Z,14.05
2022-12-25T14:11:25.272Z,11.20
2022-12-25T14:13:58.636Z,13.32
2022-12-25T14:16:27.267Z,12.57
2022-12-25T14:18:58.542Z,12.98
2022-12-25T14:21:33.834Z,14.65
2022-12-25T14:24:01.744Z,11.63
2022-12-25T14:26:32.028Z,11.63
2022-12-25T14:29:05.706Z,14.68
2022-12-25T14:31:34.321Z,14.40
2022-12-25T14:34:04.058Z,16.27
2022-12-25T14:36:33.620Z,16.08
2022-12-25T14:39:04.847Z,11.18
2022-12-25T14:41:38.111Z,11.85
2022-12-25T14:44:33.653Z,12.73
2022-12-25T14:47:20.424Z,11.50
2022-12-25T14:49:52.905Z,14.32
2022-12-25T14:52:27.755Z,15.55
2022-12-25T14:55:05.250Z,14.35
2022-12-25T14:57:39.315Z,11.63
2022-12-25T15:00:21.164Z,13.65
2022-12-25T15:02:50.557Z,10.93
2022-12-25T15:05:39.073Z,12.55
2022-12-25T15:08:10.239Z,14.15
2022-12-25T15:10:59.460Z,13.50
2022-12-25T15:13:27.974Z,12.77
2022-12-25T15:16:19.426Z,12.50
2022-12-25T15:18:48.856Z,14.23
2022-12-25T15:21:26.944Z,11.75
2022-12-25T15:23:55.882Z,12.38
2022-12-25T15:26:24.684Z,9.63
2022-12-25T15:28:52.107Z,10.75
2022-12-25T15:31:26.116Z,11.57
2022-12-25T15:33:55.515Z,13.50
2022-12-25T15:36:24.490Z,10.90
2022-12-25T15:38:52.611Z,10.60
2022-12-25T15:41:50.763Z,14.82
2022-12-25T15:44:18.321Z,10.57
2022-12-25T15:46:46.142Z,16.15
2022-12-25T15:49:15.369Z,9.90
2022-12-25T15:51:44.048Z,11.70
2022-12-25T15:54:11.771Z,12.35
2022-12-25T15:56:44.566Z,11.38
2022-12-25T15:59:13.796Z,12.30
2022-12-25T16:01:48.070Z,13.20
2022-12-25T16:04:15.568Z,18.65
2022-12-25T16:06:43.536Z,15.18
2022-12-25T16:09:15.347Z,12.55
2022-12-25T16:11:43.122Z,11.23
2022-12-25T16:14:10.666Z,10.95
2022-12-25T16:16:38.697Z,11.10
2022-12-25T16:19:06.486Z,13.70
2022-12-25T16:21:42.796Z,14.57
2022-12-25T16:24:10.229Z,13.05
2022-12-25T16:26:37.821Z,12.82
2022-12-25T16:29:07.474Z,12.82
2022-12-25T16:31:36.577Z,14.35
2022-12-25T16:34:06.060Z,15.82
2022-12-25T16:36:33.781Z,13.25
2022-12-25T16:39:01.053Z,14.90
2022-12-25T16:41:28.609Z,15.25
2022-12-25T16:43:55.841Z,13.52
2022-12-25T16:46:23.530Z,22.15
2022-12-25T16:48:50.838Z,12.65
2022-12-25T16:51:20.330Z,16.60
2022-12-25T16:53:48.190Z,14.52
2022-12-25T16:56:20.435Z,16.30
2022-12-25T16:58:48.155Z,15.75
2022-12-25T17:01:18.597Z,15.63
2022-12-25T17:03:47.273Z,14.32
2022-12-25T17:06:24.296Z,18.20
2022-12-25T17:08:53.135Z,17.65
2022-12-25T17:11:24.262Z,16.17
2022-12-25T17:13:51.810Z,17.50
2022-12-25T17:16:22.812Z,18.15
2022-12-25T17:19:01.908Z,16.63
2022-12-25T17:21:35.428Z,15.95
2022-12-25T17:24:05.044Z,22.58
2022-12-25T17:26:33.298Z,17.48
2022-12-25T17:29:01.036Z,17.15
2022-12-25T17:31:28.808Z,17.67
2022-12-25T17:33:56.437Z,16.80
2022-12-25T17:36:24.792Z,17.38
2022-12-25T17:38:52.877Z,17.30
2022-12-25T17:41:21.443Z,16.48
2022-12-25T17:43:48.879Z,17.13
2022-12-25T17:46:19.405Z,16.92
2022-12-25T17:48:47.562Z,22.50
2022-12-25T17:51:17.872Z,18.10
2022-12-25T17:53:49.773Z,20.65
2022-12-25T17:56:18.211Z,17.40
2022-12-25T17:58:54.894Z,16.27
2022-12-25T18:01:23.950Z,18.50
2022-12-25T18:03:52.072Z,23.42
2022-12-25T18:06:23.304Z,19.98
2022-12-25T18:08:50.648Z,20.42
2022-12-25T18:11:21.784Z,19.00
2022-12-25T18:13:52.140Z,21.15
2022-12-25T18:16:22.263Z,23.88
2022-12-25T18:18:52.517Z,22.83
2022-12-25T18:21:21.875Z,22.17
2022-12-25T18:23:50.227Z,24.38
2022-12-25T18:26:18.776Z,21.77
2022-12-25T18:28:48.181Z,25.98
2022-12-25T18:31:20.679Z,19.15
2022-12-25T18:33:49.015Z,19.20
2022-12-25T18:36:20.111Z,21.83
2022-12-25T18:38:48.965Z,20.98
2022-12-25T18:41:17.591Z,19.33
2022-12-25T18:43:53.619Z,19.90
2022-12-25T18:46:25.158Z,26.13
2022-12-25T18:48:54.533Z,22.17
2022-12-25T18:51:22.566Z,22.42
2022-12-25T18:53:49.956Z,22.13
2022-12-25T18:56:18.363Z,21.02
2022-12-25T18:58:46.925Z,24.05
2022-12-25T19:01:20.852Z,23.67
2022-12-25T19:03:49.155Z,26.55
2022-12-25T19:06:22.439Z,20.63
2022-12-25T19:08:49.783Z,23.02
2022-12-25T19:11:19.192Z,22.70
2022-12-25T19:13:46.776Z,21.42
2022-12-25T19:16:14.698Z,24.83
2022-12-25T19:18:42.772Z,28.00
2022-12-25T19:21:11.185Z,23.52
2022-12-25T19:23:39.305Z,23.13
2022-12-25T19:26:08.601Z,22.65
2022-12-25T19:28:36.901Z,26.98
2022-12-25T19:31:07.384Z,28.05
2022-12-25T19:33:38.082Z,23.50
2022-12-25T19:36:08.653Z,27.13
2022-12-25T19:38:36.175Z,22.70
2022-12-25T19:41:13.096Z,26.38
2022-12-25T19:43:41.767Z,27.30
2022-12-25T19:46:21.000Z,24.60
2022-12-25T19:48:48.857Z,28.33
2022-12-25T19:51:27.047Z,24.63
2022-12-25T19:53:58.592Z,26.52
2022-12-25T19:56:28.585Z,25.83
2022-12-25T19:58:56.794Z,23.52
2022-12-25T20:01:28.237Z,24.95
2022-12-25T20:03:56.739Z,22.60
2022-12-25T20:06:30.380Z,23.98
2022-12-25T20:09:02.520Z,24.75
2022-12-25T20:11:31.490Z,23.35
2022-12-25T20:13:59.209Z,24.42
2022-12-25T20:16:26.863Z,27.25
2022-12-25T20:18:54.349Z,25.55
2022-12-25T20:21:23.250Z,24.30
2022-12-25T20:23:52.166Z,24.17
2022-12-25T20:26:22.858Z,24.80
2022-12-25T20:28:50.460Z,24.13
2022-12-25T20:31:21.833Z,26.83
2022-12-25T20:33:49.593Z,22.35
2022-12-25T20:36:18.904Z,25.25
2022-12-25T20:38:46.355Z,23.67
2022-12-25T20:41:27.496Z,22.58
2022-12-25T20:43:56.378Z,24.05
2022-12-25T20:46:25.343Z,28.23
2022-12-25T20:48:53.074Z,25.30
2022-12-25T20:51:23.960Z,24.13
2022-12-25T20:53:51.573Z,24.90
2022-12-25T20:56:24.205Z,24.92
2022-12-25T20:58:59.828Z,24.92
2022-12-25T21:01:30.074Z,21.33
2022-12-25T21:03:58.175Z,21.35
2022-12-25T21:06:26.470Z,25.70
2022-12-25T21:08:54.047Z,23.05
2022-12-25T21:11:21.968Z,26.67
2022-12-25T21:13:49.894Z,26.08
2022-12-25T21:16:21.420Z,21.67
2022-12-25T21:18:50.515Z,22.50
2022-12-25T21:21:18.491Z,24.63
2022-12-25T21:23:46.385Z,21.70
2022-12-25T21:26:26.592Z,20.70
2022-12-25T21:28:57.210Z,22.25
2022-12-25T21:31:25.568Z,23.85
2022-12-25T21:33:54.764Z,24.27
2022-12-25T21:36:28.818Z,24.02
2022-12-25T21:38:59.106Z,24.05
2022-12-25T21:41:28.403Z,24.20
2022-12-25T21:43:56.100Z,22.50
2022-12-25T21:46:24.361Z,22.05
2022-12-25T21:48:52.164Z,25.77
2022-12-25T21:51:41.314Z,20.75
2022-12-25T21:54:09.263Z,24.42
2022-12-25T21:56:44.027Z,23.48
2022-12-25T21:59:17.594Z,23.75
2022-12-25T22:01:46.899Z,24.98
2022-12-25T22:04:15.923Z,23.40
2022-12-25T22:07:03.328Z,22.00
2022-12-25T22:09:30.889Z,22.83
2022-12-25T22:12:17.694Z,23.02
2022-12-25T22:14:56.821Z,24.52
2022-12-25T22:17:48.678Z,23.52
2022-12-25T22:20:19.052Z,33.13
2022-12-25T22:22:47.285Z,22.65
2022-12-25T22:25:16.212Z,25.90
2022-12-25T22:27:45.779Z,21.23
2022-12-25T22:30:16.825Z,22.40
2022-12-25T22:32:44.816Z,23.77
2022-12-25T22:35:13.267Z,24.85
2022-12-25T22:37:41.824Z,21.23
2022-12-25T22:40:11.931Z,24.92
2022-12-25T22:42:39.587Z,20.23
2022-12-25T22:45:07.429Z,22.23
2022-12-25T22:47:35.122Z,24.52
2022-12-25T22:50:02.362Z,24.58
2022-12-25T22:52:29.991Z,21.52
2022-12-25T22:54:58.237Z,23.90
2022-12-25T22:57:25.827Z,23.70
2022-12-25T22:59:53.329Z,22.08
2022-12-25T23:02:22.000Z,22.20
2022-12-25T23:04:49.859Z,24.23
2022-12-25T23:07:17.489Z,22.33
2022-12-25T23:09:45.216Z,23.15
2022-12-25T23:12:32.949Z,23.33
2022-12-25T23:15:00.268Z,26.40
2022-12-25T23:17:46.466Z,23.27
2022-12-25T23:20:33.481Z,21.63
2022-12-25T23:23:20.383Z,21.30
2022-12-25T23:26:06.343Z,22.73
2022-12-25T23:28:56.046Z,24.98
2022-12-25T23:31:27.140Z,24.92
2022-12-25T23:33:54.837Z,22.50
2022-12-25T23:36:22.383Z,21.95
2022-12-25T23:38:50.035Z,21.70
2022-12-25T23:41:17.278Z,21.80
2022-12-25T23:43:44.822Z,22.75
2022-12-25T23:46:12.296Z,22.02
2022-12-25T23:48:39.926Z,20.25
2022-12-25T23:51:07.976Z,25.95
2022-12-25T23:53:35.625Z,26.88
2022-12-25T23:56:03.311Z,21.40
2022-12-25T23:58:30.977Z,22.83
